Time;durP1;ratioP1;P1;durP2;ratioP2;P2;SDS_P1;SDS_P2;PMS_P1;PMS_P2;Temp;Humidity;BMP_temperature;BMP_pressure;BME280_temperature;BME280_humidity;BME280_pressure;Samples;Min_cycle;Max_cycle;Signal;HPM_P1;HPM_P2
2023/04/05 00:01:37;;;;;;;1999.90;999.90;;;3.80;99.90;;;;;;6698981;88;20192;-76
2023/04/05 00:11:38;;;;;;;1999.90;999.90;;;3.50;99.90;;;;;;6695495;88;20635;-76
2023/04/05 00:21:39;;;;;;;1999.90;999.90;;;3.30;99.90;;;;;;6704125;88;20337;-75
2023/04/05 00:31:39;;;;;;;1999.90;999.90;;;3.30;99.90;;;;;;6703622;88;20204;-76
2023/04/05 00:41:40;;;;;;;1999.90;999.90;;;3.20;99.90;;;;;;6712630;88;20187;-76
2023/04/05 00:51:41;;;;;;;1999.90;999.90;;;3.00;99.90;;;;;;6700929;88;20211;-76
2023/04/05 01:01:41;;;;;;;1999.90;999.90;;;2.80;99.90;;;;;;6703534;88;20368;-75
2023/04/05 01:11:45;;;;;;;1999.90;999.90;;;2.70;99.90;;;;;;6702840;88;20290;-76
2023/04/05 01:22:12;;;;;;;1999.90;999.90;;;2.80;99.90;;;;;;6701456;88;20484;-77
2023/04/05 01:32:16;;;;;;;1999.90;999.90;;;2.80;99.90;;;;;;6703051;88;20205;-76
2023/04/05 01:42:24;;;;;;;1999.90;999.90;;;2.80;99.90;;;;;;6703437;88;20226;-75
2023/04/05 01:52:24;;;;;;;1999.90;999.90;;;3.00;99.90;;;;;;6701689;88;20301;-76
2023/04/05 02:02:25;;;;;;;1999.90;999.90;;;2.90;99.90;;;;;;6701639;88;20330;-75
2023/04/05 02:12:25;;;;;;;1999.90;999.90;;;2.90;99.90;;;;;;6702825;88;20273;-76
2023/04/05 02:22:26;;;;;;;1999.90;999.90;;;2.90;99.90;;;;;;6702965;88;20285;-77
2023/04/05 02:32:27;;;;;;;1999.90;999.90;;;2.90;99.90;;;;;;6703593;88;20211;-77
2023/04/05 02:42:27;;;;;;;1999.90;999.90;;;2.80;99.90;;;;;;6702661;88;20194;-77
2023/04/05 02:52:28;;;;;;;1999.90;999.90;;;2.90;99.90;;;;;;6700679;88;20337;-77
2023/04/05 03:02:28;;;;;;;1999.90;999.90;;;3.00;99.90;;;;;;6699923;88;20198;-75
2023/04/05 03:12:29;;;;;;;1999.90;999.90;;;2.90;99.90;;;;;;6701801;88;20226;-76
2023/04/05 03:22:29;;;;;;;1999.90;999.90;;;2.60;99.90;;;;;;6701502;88;20219;-77
2023/04/05 03:32:30;;;;;;;1999.90;999.90;;;2.40;99.90;;;;;;6701421;88;20222;-75
2023/04/05 03:42:30;;;;;;;1999.90;999.90;;;2.40;99.90;;;;;;6696690;88;20712;-76
2023/04/05 03:52:31;;;;;;;1999.90;999.90;;;2.30;99.90;;;;;;6714238;88;20208;-76
2023/04/05 04:02:31;;;;;;;1999.90;999.90;;;2.10;99.90;;;;;;6702906;88;20194;-75
2023/04/05 04:12:32;;;;;;;1999.90;999.90;;;1.80;99.90;;;;;;6706192;88;20229;-75
2023/04/05 04:22:32;;;;;;;1999.90;999.90;;;1.60;99.90;;;;;;6704940;88;20563;-76
2023/04/05 04:42:53;;;;;;;1999.90;999.90;;;1.10;99.90;;;;;;6704524;88;21080;-76
2023/04/05 04:52:54;;;;;;;1999.90;999.90;;;1.10;99.90;;;;;;6703068;88;20216;-75
2023/04/05 05:02:55;;;;;;;1999.90;999.90;;;1.20;99.90;;;;;;6701658;88;20178;-74
2023/04/05 05:12:55;;;;;;;1999.90;999.90;;;1.20;99.90;;;;;;6706184;88;20508;-74
2023/04/05 05:22:57;;;;;;;1999.90;999.90;;;1.00;99.90;;;;;;6705066;88;20214;-77
2023/04/05 05:32:57;;;;;;;1999.90;999.90;;;1.10;99.90;;;;;;6713917;88;20253;-78
2023/04/05 05:42:58;;;;;;;1999.90;999.90;;;1.00;99.90;;;;;;6707004;88;20190;-75
2023/04/05 05:52:59;;;;;;;1999.90;999.90;;;1.20;99.90;;;;;;6704285;88;20250;-77
2023/04/05 06:03:00;;;;;;;1999.90;999.90;;;1.20;99.90;;;;;;6704815;88;20373;-76
2023/04/05 06:13:01;;;;;;;1999.90;999.90;;;1.40;99.90;;;;;;6705542;88;20620;-77
2023/04/05 06:23:01;;;;;;;1999.90;999.90;;;1.70;99.90;;;;;;6702757;88;20205;-76
2023/04/05 06:33:02;;;;;;;1999.90;999.90;;;2.10;99.90;;;;;;6701073;88;20739;-76
2023/04/05 06:43:02;;;;;;;1999.90;999.90;;;2.60;99.90;;;;;;6701742;88;20722;-77
2023/04/05 06:53:03;;;;;;;1999.90;999.90;;;3.00;99.90;;;;;;6698205;88;20203;-77
2023/04/05 07:03:05;;;;;;;1999.90;999.90;;;3.50;99.90;;;;;;6702310;88;20671;-77
2023/04/05 07:13:05;;;;;;;1999.90;999.90;;;4.00;99.90;;;;;;6703877;88;20318;-75
2023/04/05 07:23:47;;;;;;;1999.90;999.90;;;4.60;99.90;;;;;;6716781;78;20194;-77
2023/04/05 07:33:47;;;;;;;1999.90;999.90;;;5.20;99.90;;;;;;6703271;88;20182;-77
2023/04/05 07:43:48;;;;;;;1999.90;999.90;;;5.50;99.90;;;;;;6700950;88;20704;-79
2023/04/05 07:53:49;;;;;;;1999.90;999.90;;;6.00;99.90;;;;;;6697529;88;20190;-79
2023/04/05 08:03:49;;;;;;;1999.90;999.90;;;6.50;99.90;;;;;;6702845;88;20286;-78
2023/04/05 08:13:51;;;;;;;1999.90;999.90;;;7.50;99.90;;;;;;6697410;88;20543;-76
2023/04/05 08:23:51;;;;;;;1999.90;999.90;;;8.40;98.40;;;;;;6693191;88;20212;-77
2023/04/05 08:33:52;;;;;;;1999.90;999.90;;;7.90;97.60;;;;;;6695566;88;20253;-77
2023/04/05 08:44:04;;;;;;;1999.90;999.90;;;8.70;96.70;;;;;;6710221;88;20717;-77
2023/04/05 08:54:04;;;;;;;1999.90;999.90;;;9.40;95.00;;;;;;6694657;88;20262;-78
2023/04/05 09:04:08;;;;;;;1999.90;999.90;;;9.90;94.50;;;;;;6692583;88;20797;-77
2023/04/05 09:14:10;;;;;;;1999.90;999.90;;;10.90;92.70;;;;;;6692106;88;20261;-78
2023/04/05 09:24:11;;;;;;;1999.90;999.90;;;11.20;92.60;;;;;;6695704;88;20183;-76
2023/04/05 09:34:20;;;;;;;1999.90;999.90;;;12.60;90.40;;;;;;6692705;88;20220;-77
2023/04/05 09:44:21;;;;;;;1999.90;999.90;;;13.70;88.70;;;;;;6690212;88;20190;-77
2023/04/05 09:54:21;;;;;;;1999.90;999.90;;;14.40;86.30;;;;;;6688002;88;20216;-77
2023/04/05 10:04:23;;;;;;;1999.90;999.90;;;13.80;83.70;;;;;;6692752;88;20230;-77
2023/04/05 10:14:24;;;;;;;1999.90;999.90;;;14.60;80.50;;;;;;6692729;88;20746;-77
2023/04/05 10:24:47;;;;;;;1999.90;999.90;;;14.70;80.50;;;;;;6699937;88;20203;-77
2023/04/05 10:34:56;;;;;;;1999.90;999.90;;;14.60;77.90;;;;;;6690186;88;20543;-77
2023/04/05 10:45:10;;;;;;;1999.90;999.90;;;13.50;78.40;;;;;;6689603;88;20213;-77
2023/04/05 10:55:11;;;;;;;1999.90;999.90;;;16.60;77.00;;;;;;6695914;88;20611;-78
2023/04/05 11:05:32;;;;;;;1999.90;999.90;;;18.10;74.80;;;;;;6682622;88;20843;-77
2023/04/05 11:15:34;;;;;;;1999.90;999.90;;;18.30;73.10;;;;;;6692497;88;20836;-76
2023/04/05 11:25:39;;;;;;;1999.90;999.90;;;18.00;70.00;;;;;;6685551;88;20190;-77
2023/04/05 11:35:40;;;;;;;1999.90;999.90;;;15.50;70.00;;;;;;6683843;88;20204;-77
2023/04/05 11:45:40;;;;;;;1999.90;999.90;;;16.30;70.00;;;;;;6688548;88;20905;-77
2023/04/05 11:55:47;;;;;;;1999.90;999.90;;;16.90;70.80;;;;;;6688198;88;20660;-78
2023/04/05 12:05:48;;;;;;;1999.90;999.90;;;19.10;66.50;;;;;;6694383;88;20627;-77
2023/04/05 12:15:49;;;;;;;1999.90;999.90;;;19.00;65.60;;;;;;6688839;88;20228;-78
2023/04/05 12:25:52;;;;;;;1999.90;999.90;;;19.90;64.50;;;;;;6692889;88;20241;-77
2023/04/05 12:35:53;;;;;;;1999.90;999.90;;;20.10;62.90;;;;;;6693997;88;20707;-77
2023/04/05 12:45:55;;;;;;;1999.90;999.90;;;19.10;62.60;;;;;;6694209;88;20206;-77
2023/04/05 12:55:57;;;;;;;1999.90;999.90;;;19.00;64.60;;;;;;6693012;88;20198;-77
2023/04/05 13:05:57;;;;;;;1999.90;999.90;;;19.80;63.50;;;;;;6691806;88;20228;-78
2023/04/05 13:15:58;;;;;;;1999.90;999.90;;;20.40;62.60;;;;;;6696806;88;20184;-77
2023/04/05 13:26:19;;;;;;;1999.90;999.90;;;21.40;63.00;;;;;;6739384;78;20166;-82
2023/04/05 13:36:20;;;;;;;1999.90;999.90;;;19.50;61.10;;;;;;6661252;88;20995;-82
2023/04/05 13:46:20;;;;;;;1999.90;999.90;;;19.80;62.10;;;;;;6657424;89;20181;-82
2023/04/05 13:56:21;;;;;;;1999.90;999.90;;;20.40;61.90;;;;;;6690970;88;20207;-80
2023/04/05 14:06:22;;;;;;;1999.90;999.90;;;19.30;61.80;;;;;;6740428;88;20990;-80
2023/04/05 14:16:25;;;;;;;1999.90;999.90;;;19.60;61.00;;;;;;6628530;89;20220;-80
2023/04/05 14:26:26;;;;;;;1999.90;999.90;;;20.20;62.40;;;;;;6627395;89;20783;-79
2023/04/05 14:36:27;;;;;;;1999.90;999.90;;;19.80;60.50;;;;;;6627773;89;20630;-80
2023/04/05 14:46:28;;;;;;;1999.90;999.90;;;18.50;61.90;;;;;;6629182;89;20222;-80
2023/04/05 14:56:28;;;;;;;1999.90;999.90;;;18.70;61.60;;;;;;6628567;89;20300;-80
2023/04/05 15:06:29;;;;;;;1999.90;999.90;;;18.30;61.70;;;;;;6629609;89;20505;-79
2023/04/05 15:16:29;;;;;;;1999.90;999.90;;;17.10;59.80;;;;;;6627412;89;20871;-79
2023/04/05 15:26:30;;;;;;;1999.90;999.90;;;17.10;61.80;;;;;;6632149;89;20210;-79
2023/04/05 15:36:30;;;;;;;1999.90;999.90;;;18.00;61.30;;;;;;6625712;89;20284;-80
2023/04/05 15:46:31;;;;;;;1999.90;999.90;;;17.70;60.90;;;;;;6628690;89;20223;-80
2023/04/05 15:56:32;;;;;;;1999.90;999.90;;;17.30;61.40;;;;;;6640240;89;20916;-80
2023/04/05 16:06:32;;;;;;;1999.90;999.90;;;16.70;61.50;;;;;;6639313;89;20504;-79
2023/04/05 16:16:33;;;;;;;1999.90;999.90;;;16.70;61.80;;;;;;6659061;88;20683;-79
2023/04/05 16:26:33;;;;;;;1999.90;999.90;;;16.10;62.90;;;;;;6643502;89;20205;-79
2023/04/05 16:36:34;;;;;;;1999.90;999.90;;;15.60;62.90;;;;;;6642645;89;20197;-79
2023/04/05 16:46:35;;;;;;;1999.90;999.90;;;15.40;62.70;;;;;;6644313;89;20229;-78
2023/04/05 16:56:36;;;;;;;1999.90;999.90;;;14.90;63.70;;;;;;6635846;88;20189;-77
2023/04/05 17:06:36;;;;;;;1999.90;999.90;;;14.50;64.80;;;;;;6639494;89;20275;-80
2023/04/05 17:16:38;;;;;;;1999.90;999.90;;;14.20;64.60;;;;;;6675277;88;20737;-78
2023/04/05 17:26:38;;;;;;;1999.90;999.90;;;13.40;65.50;;;;;;6637307;89;20312;-80
2023/04/05 17:36:39;;;;;;;1999.90;999.90;;;13.10;65.60;;;;;;6630461;89;20189;-80
2023/04/05 17:46:40;;;;;;;1999.90;999.90;;;12.80;66.80;;;;;;6648208;89;20765;-79
2023/04/05 17:56:41;;;;;;;1999.90;999.90;;;12.40;68.00;;;;;;6647415;88;20192;-79
2023/04/05 18:06:41;;;;;;;1999.90;999.90;;;12.00;69.00;;;;;;6660663;88;20234;-77
2023/04/05 18:16:42;;;;;;;1999.90;999.90;;;11.60;69.40;;;;;;6654646;88;20214;-78
2023/04/05 18:26:42;;;;;;;1999.90;999.90;;;11.30;70.10;;;;;;6648098;88;20239;-80
2023/04/05 18:36:43;;;;;;;1999.90;999.90;;;10.90;71.70;;;;;;6649623;88;20311;-78
2023/04/05 18:46:44;;;;;;;1999.90;999.90;;;10.40;72.40;;;;;;6645691;88;20232;-77
2023/04/05 18:56:44;;;;;;;1999.90;999.90;;;10.10;73.80;;;;;;6648536;88;20194;-78
2023/04/05 19:06:45;;;;;;;1999.90;999.90;;;9.50;75.90;;;;;;6640167;88;20206;-78
2023/04/05 19:16:45;;;;;;;1999.90;999.90;;;9.20;76.00;;;;;;6646205;88;20311;-78
2023/04/05 19:26:46;;;;;;;1999.90;999.90;;;8.90;77.30;;;;;;6662138;88;20287;-79
2023/04/05 19:36:47;;;;;;;1999.90;999.90;;;8.60;78.30;;;;;;6667019;88;20247;-78
2023/04/05 19:46:47;;;;;;;1999.90;999.90;;;8.50;79.40;;;;;;6642007;88;20192;-79
2023/04/05 19:56:48;;;;;;;1999.90;999.90;;;8.40;81.60;;;;;;6641184;89;20225;-79
2023/04/05 20:06:52;;;;;;;1999.90;999.90;;;8.40;82.70;;;;;;6635556;89;20196;-79
2023/04/05 20:16:54;;;;;;;1999.90;999.90;;;8.20;84.70;;;;;;6643358;77;21130;-78
2023/04/05 20:26:58;;;;;;;1999.90;999.90;;;7.90;84.00;;;;;;6637248;88;20333;-78
2023/04/05 20:37:10;;;;;;;1999.90;999.90;;;7.40;85.90;;;;;;6651568;88;20324;-77
2023/04/05 20:47:10;;;;;;;1999.90;999.90;;;7.20;85.30;;;;;;6663303;88;20181;-78
2023/04/05 20:57:10;;;;;;;1999.90;999.90;;;7.00;87.40;;;;;;6653635;88;20359;-74
2023/04/05 21:07:11;;;;;;;1999.90;999.90;;;6.70;87.20;;;;;;6629674;88;20190;-73
2023/04/05 21:17:11;;;;;;;1999.90;999.90;;;6.70;89.40;;;;;;6644648;88;20393;-76
2023/04/05 21:27:12;;;;;;;1999.90;999.90;;;6.20;90.20;;;;;;6641067;88;20248;-73
2023/04/05 21:37:13;;;;;;;1999.90;999.90;;;5.90;90.90;;;;;;6646848;88;20450;-73
2023/04/05 21:47:13;;;;;;;1999.90;999.90;;;5.80;91.50;;;;;;6638803;88;20218;-73
2023/04/05 21:57:14;;;;;;;1999.90;999.90;;;5.50;92.00;;;;;;6647268;88;20340;-73
2023/04/05 22:07:14;;;;;;;1999.90;999.90;;;5.40;92.80;;;;;;6646527;88;20186;-73
2023/04/05 22:17:15;;;;;;;1999.90;999.90;;;5.30;93.50;;;;;;6676385;88;20630;-73
2023/04/05 22:27:17;;;;;;;1999.90;999.90;;;5.20;94.20;;;;;;6632157;88;20653;-73
2023/04/05 22:37:17;;;;;;;1999.90;999.90;;;5.20;95.00;;;;;;6636981;88;20218;-74
2023/04/05 22:47:18;;;;;;;1999.90;999.90;;;4.90;96.70;;;;;;6649952;88;20208;-73
2023/04/05 22:57:18;;;;;;;1999.90;999.90;;;4.70;98.60;;;;;;6650273;88;20205;-73
2023/04/05 23:07:19;;;;;;;1999.90;999.90;;;4.60;99.90;;;;;;6652534;88;20197;-73
2023/04/05 23:17:20;;;;;;;1999.90;999.90;;;4.50;99.90;;;;;;6635192;88;21101;-73
2023/04/05 23:27:21;;;;;;;1999.90;999.90;;;4.40;99.90;;;;;;6664700;88;20376;-73
2023/04/05 23:37:22;;;;;;;1999.90;999.90;;;4.10;99.90;;;;;;6665855;88;20173;-73
2023/04/05 23:47:22;;;;;;;1999.90;999.90;;;4.00;99.90;;;;;;6644589;88;20688;-73
2023/04/05 23:57:23;;;;;;;1999.90;999.90;;;3.90;99.90;;;;;;6642522;88;20282;-73
